sensor_id;sensor_type;location;lat;lon;timestamp;temperature;humidity
802;DHT22;383;48.766;9.270;2023-11-21T00:01:55;10.00;99.50
802;DHT22;383;48.766;9.270;2023-11-21T00:04:23;10.10;99.30
802;DHT22;383;48.766;9.270;2023-11-21T00:06:50;10.10;99.60
802;DHT22;383;48.766;9.270;2023-11-21T00:09:17;10.00;99.60
802;DHT22;383;48.766;9.270;2023-11-21T00:11:45;10.10;99.80
802;DHT22;383;48.766;9.270;2023-11-21T00:14:12;10.00;99.80
802;DHT22;383;48.766;9.270;2023-11-21T00:16:40;10.00;99.90
802;DHT22;383;48.766;9.270;2023-11-21T00:19:07;10.00;99.90
802;DHT22;383;48.766;9.270;2023-11-21T00:21:35;10.00;99.90
802;DHT22;383;48.766;9.270;2023-11-21T00:24:02;10.00;99.90
802;DHT22;383;48.766;9.270;2023-11-21T00:26:28;10.00;99.70
802;DHT22;383;48.766;9.270;2023-11-21T00:28:56;10.00;99.10
802;DHT22;383;48.766;9.270;2023-11-21T00:31:23;10.00;99.80
802;DHT22;383;48.766;9.270;2023-11-21T00:33:50;10.00;99.60
802;DHT22;383;48.766;9.270;2023-11-21T00:36:16;10.00;99.60
802;DHT22;383;48.766;9.270;2023-11-21T00:38:44;10.10;99.60
802;DHT22;383;48.766;9.270;2023-11-21T00:41:12;10.10;99.60
802;DHT22;383;48.766;9.270;2023-11-21T00:43:39;10.00;99.80
802;DHT22;383;48.766;9.270;2023-11-21T00:46:06;10.10;99.80
802;DHT22;383;48.766;9.270;2023-11-21T00:48:33;10.10;99.90
802;DHT22;383;48.766;9.270;2023-11-21T00:51:00;10.10;99.90
802;DHT22;383;48.766;9.270;2023-11-21T00:53:26;10.10;99.90
802;DHT22;383;48.766;9.270;2023-11-21T00:55:55;10.10;99.90
802;DHT22;383;48.766;9.270;2023-11-21T00:58:23;10.00;99.90
802;DHT22;383;48.766;9.270;2023-11-21T01:00:49;10.00;99.90
802;DHT22;383;48.766;9.270;2023-11-21T01:03:16;10.10;99.90
802;DHT22;383;48.766;9.270;2023-11-21T01:05:43;10.10;99.90
802;DHT22;383;48.766;9.270;2023-11-21T01:08:09;10.20;99.90
802;DHT22;383;48.766;9.270;2023-11-21T01:10:37;10.20;99.90
802;DHT22;383;48.766;9.270;2023-11-21T01:13:05;10.20;99.90
802;DHT22;383;48.766;9.270;2023-11-21T01:15:32;10.20;99.70
802;DHT22;383;48.766;9.270;2023-11-21T01:17:59;10.20;99.80
802;DHT22;383;48.766;9.270;2023-11-21T01:20:26;10.20;99.70
802;DHT22;383;48.766;9.270;2023-11-21T01:22:52;10.30;99.40
802;DHT22;383;48.766;9.270;2023-11-21T01:25:19;10.20;99.20
802;DHT22;383;48.766;9.270;2023-11-21T01:27:46;10.20;99.50
802;DHT22;383;48.766;9.270;2023-11-21T01:30:14;10.20;99.70
802;DHT22;383;48.766;9.270;2023-11-21T01:32:41;10.20;99.90
802;DHT22;383;48.766;9.270;2023-11-21T01:35:09;10.20;99.60
802;DHT22;383;48.766;9.270;2023-11-21T01:37:36;10.20;99.80
802;DHT22;383;48.766;9.270;2023-11-21T01:40:03;10.20;99.40
802;DHT22;383;48.766;9.270;2023-11-21T01:42:35;10.20;99.80
802;DHT22;383;48.766;9.270;2023-11-21T01:45:03;10.20;99.90
802;DHT22;383;48.766;9.270;2023-11-21T01:47:32;10.20;99.90
802;DHT22;383;48.766;9.270;2023-11-21T01:49:59;10.20;99.40
802;DHT22;383;48.766;9.270;2023-11-21T01:52:27;10.20;99.70
802;DHT22;383;48.766;9.270;2023-11-21T01:54:53;10.20;99.80
802;DHT22;383;48.766;9.270;2023-11-21T01:57:20;10.20;99.90
802;DHT22;383;48.766;9.270;2023-11-21T01:59:48;10.30;99.90
802;DHT22;383;48.766;9.270;2023-11-21T02:02:16;10.30;99.90
802;DHT22;383;48.766;9.270;2023-11-21T02:04:44;10.30;99.90
802;DHT22;383;48.766;9.270;2023-11-21T02:07:11;10.30;99.90
802;DHT22;383;48.766;9.270;2023-11-21T02:09:37;10.30;99.90
802;DHT22;383;48.766;9.270;2023-11-21T02:12:08;10.40;99.90
802;DHT22;383;48.766;9.270;2023-11-21T02:14:36;10.40;99.90
802;DHT22;383;48.766;9.270;2023-11-21T02:17:02;10.40;99.90
802;DHT22;383;48.766;9.270;2023-11-21T02:19:29;10.40;99.90
802;DHT22;383;48.766;9.270;2023-11-21T02:22:00;10.40;99.30
802;DHT22;383;48.766;9.270;2023-11-21T02:24:31;10.30;99.00
802;DHT22;383;48.766;9.270;2023-11-21T02:26:58;10.30;99.00
802;DHT22;383;48.766;9.270;2023-11-21T02:29:25;10.20;99.20
802;DHT22;383;48.766;9.270;2023-11-21T02:31:54;10.20;99.40
802;DHT22;383;48.766;9.270;2023-11-21T02:34:21;10.20;99.50
802;DHT22;383;48.766;9.270;2023-11-21T02:36:48;10.20;99.60
802;DHT22;383;48.766;9.270;2023-11-21T02:39:16;10.20;98.70
802;DHT22;383;48.766;9.270;2023-11-21T02:41:45;10.20;98.70
802;DHT22;383;48.766;9.270;2023-11-21T02:44:11;10.20;99.00
802;DHT22;383;48.766;9.270;2023-11-21T02:46:38;10.10;99.10
802;DHT22;383;48.766;9.270;2023-11-21T02:49:06;10.10;98.70
802;DHT22;383;48.766;9.270;2023-11-21T02:51:33;10.10;98.90
802;DHT22;383;48.766;9.270;2023-11-21T02:53:59;10.10;99.30
802;DHT22;383;48.766;9.270;2023-11-21T02:56:28;10.10;99.10
802;DHT22;383;48.766;9.270;2023-11-21T02:58:56;10.10;99.10
802;DHT22;383;48.766;9.270;2023-11-21T03:01:23;10.10;98.90
802;DHT22;383;48.766;9.270;2023-11-21T03:03:50;10.20;99.20
802;DHT22;383;48.766;9.270;2023-11-21T03:06:17;10.20;99.00
802;DHT22;383;48.766;9.270;2023-11-21T03:08:44;10.20;98.90
802;DHT22;383;48.766;9.270;2023-11-21T03:11:11;10.20;98.80
802;DHT22;383;48.766;9.270;2023-11-21T03:13:38;10.20;99.00
802;DHT22;383;48.766;9.270;2023-11-21T03:16:07;10.20;99.00
802;DHT22;383;48.766;9.270;2023-11-21T03:18:34;10.20;98.90
802;DHT22;383;48.766;9.270;2023-11-21T03:21:01;10.20;98.90
802;DHT22;383;48.766;9.270;2023-11-21T03:23:28;10.30;99.00
802;DHT22;383;48.766;9.270;2023-11-21T03:25:55;10.30;98.70
802;DHT22;383;48.766;9.270;2023-11-21T03:28:21;10.30;98.60
802;DHT22;383;48.766;9.270;2023-11-21T03:30:49;10.30;98.40
802;DHT22;383;48.766;9.270;2023-11-21T03:33:17;10.30;98.40
802;DHT22;383;48.766;9.270;2023-11-21T03:35:43;10.30;98.30
802;DHT22;383;48.766;9.270;2023-11-21T03:38:11;10.40;98.30
802;DHT22;383;48.766;9.270;2023-11-21T03:40:38;10.30;98.10
802;DHT22;383;48.766;9.270;2023-11-21T03:43:05;10.40;97.70
802;DHT22;383;48.766;9.270;2023-11-21T03:45:32;10.40;97.80
802;DHT22;383;48.766;9.270;2023-11-21T03:47:59;10.40;97.90
802;DHT22;383;48.766;9.270;2023-11-21T03:50:28;10.30;97.90
802;DHT22;383;48.766;9.270;2023-11-21T03:52:54;10.30;98.20
802;DHT22;383;48.766;9.270;2023-11-21T03:55:20;10.30;97.90
802;DHT22;383;48.766;9.270;2023-11-21T03:57:48;10.30;97.90
802;DHT22;383;48.766;9.270;2023-11-21T04:00:16;10.30;98.10
802;DHT22;383;48.766;9.270;2023-11-21T04:02:42;10.30;98.00
802;DHT22;383;48.766;9.270;2023-11-21T04:05:09;10.30;97.80
802;DHT22;383;48.766;9.270;2023-11-21T04:07:37;10.20;98.00
802;DHT22;383;48.766;9.270;2023-11-21T04:10:05;10.20;98.30
802;DHT22;383;48.766;9.270;2023-11-21T04:12:34;10.20;98.10
802;DHT22;383;48.766;9.270;2023-11-21T04:15:00;10.20;98.30
802;DHT22;383;48.766;9.270;2023-11-21T04:17:27;10.20;98.30
802;DHT22;383;48.766;9.270;2023-11-21T04:19:54;10.20;97.80
802;DHT22;383;48.766;9.270;2023-11-21T04:22:21;10.20;98.40
802;DHT22;383;48.766;9.270;2023-11-21T04:24:49;10.20;98.30
802;DHT22;383;48.766;9.270;2023-11-21T04:27:15;10.20;98.60
802;DHT22;383;48.766;9.270;2023-11-21T04:29:43;10.20;98.70
802;DHT22;383;48.766;9.270;2023-11-21T04:32:10;10.20;98.60
802;DHT22;383;48.766;9.270;2023-11-21T04:34:38;10.20;99.00
802;DHT22;383;48.766;9.270;2023-11-21T04:37:04;10.20;99.10
802;DHT22;383;48.766;9.270;2023-11-21T04:39:31;10.20;99.40
802;DHT22;383;48.766;9.270;2023-11-21T04:42:00;10.10;99.50
802;DHT22;383;48.766;9.270;2023-11-21T04:44:26;10.10;99.80
802;DHT22;383;48.766;9.270;2023-11-21T04:46:53;10.10;99.70
802;DHT22;383;48.766;9.270;2023-11-21T04:49:19;10.10;99.90
802;DHT22;383;48.766;9.270;2023-11-21T04:51:46;10.10;99.80
802;DHT22;383;48.766;9.270;2023-11-21T04:54:13;10.20;99.70
802;DHT22;383;48.766;9.270;2023-11-21T04:56:39;10.10;99.70
802;DHT22;383;48.766;9.270;2023-11-21T04:59:08;10.20;99.40
802;DHT22;383;48.766;9.270;2023-11-21T05:01:35;10.10;99.40
802;DHT22;383;48.766;9.270;2023-11-21T05:04:02;10.20;99.10
802;DHT22;383;48.766;9.270;2023-11-21T05:06:31;10.10;98.90
802;DHT22;383;48.766;9.270;2023-11-21T05:08:58;10.00;99.10
802;DHT22;383;48.766;9.270;2023-11-21T05:11:25;10.00;99.30
802;DHT22;383;48.766;9.270;2023-11-21T05:13:52;10.00;99.10
802;DHT22;383;48.766;9.270;2023-11-21T05:16:20;10.00;99.00
802;DHT22;383;48.766;9.270;2023-11-21T05:18:47;10.00;98.90
802;DHT22;383;48.766;9.270;2023-11-21T05:21:16;9.90;99.10
802;DHT22;383;48.766;9.270;2023-11-21T05:23:42;10.00;99.30
802;DHT22;383;48.766;9.270;2023-11-21T05:26:09;10.00;98.80
802;DHT22;383;48.766;9.270;2023-11-21T05:28:36;9.90;99.00
802;DHT22;383;48.766;9.270;2023-11-21T05:31:03;9.90;99.50
802;DHT22;383;48.766;9.270;2023-11-21T05:33:31;9.80;99.50
802;DHT22;383;48.766;9.270;2023-11-21T05:35:59;9.80;99.90
802;DHT22;383;48.766;9.270;2023-11-21T05:38:26;9.80;99.90
802;DHT22;383;48.766;9.270;2023-11-21T05:40:52;9.80;99.70
802;DHT22;383;48.766;9.270;2023-11-21T05:43:19;9.80;99.90
802;DHT22;383;48.766;9.270;2023-11-21T05:45:46;9.80;99.90
802;DHT22;383;48.766;9.270;2023-11-21T05:48:13;9.80;99.90
802;DHT22;383;48.766;9.270;2023-11-21T05:50:42;9.70;99.90
802;DHT22;383;48.766;9.270;2023-11-21T05:53:09;9.70;99.90
802;DHT22;383;48.766;9.270;2023-11-21T05:55:37;9.70;99.90
802;DHT22;383;48.766;9.270;2023-11-21T05:58:04;9.70;99.90
802;DHT22;383;48.766;9.270;2023-11-21T06:00:32;9.70;99.90
802;DHT22;383;48.766;9.270;2023-11-21T06:02:59;9.80;99.90
802;DHT22;383;48.766;9.270;2023-11-21T06:05:26;9.90;99.90
802;DHT22;383;48.766;9.270;2023-11-21T06:07:55;9.90;99.70
802;DHT22;383;48.766;9.270;2023-11-21T06:10:24;9.80;99.90
802;DHT22;383;48.766;9.270;2023-11-21T06:12:51;9.80;99.90
802;DHT22;383;48.766;9.270;2023-11-21T06:15:17;9.80;99.90
802;DHT22;383;48.766;9.270;2023-11-21T06:17:46;9.80;99.90
802;DHT22;383;48.766;9.270;2023-11-21T06:20:17;9.80;99.90
802;DHT22;383;48.766;9.270;2023-11-21T06:22:45;9.80;99.90
802;DHT22;383;48.766;9.270;2023-11-21T06:25:14;9.90;99.90
802;DHT22;383;48.766;9.270;2023-11-21T06:27:43;9.90;99.80
802;DHT22;383;48.766;9.270;2023-11-21T06:30:11;9.90;99.10
802;DHT22;383;48.766;9.270;2023-11-21T06:32:39;9.90;99.50
802;DHT22;383;48.766;9.270;2023-11-21T06:35:07;9.90;99.30
802;DHT22;383;48.766;9.270;2023-11-21T06:37:35;9.90;99.40
802;DHT22;383;48.766;9.270;2023-11-21T06:40:03;9.90;99.50
802;DHT22;383;48.766;9.270;2023-11-21T06:42:32;9.90;99.90
802;DHT22;383;48.766;9.270;2023-11-21T06:44:59;9.90;99.90
802;DHT22;383;48.766;9.270;2023-11-21T06:47:29;9.80;99.90
802;DHT22;383;48.766;9.270;2023-11-21T06:49:56;9.90;99.90
802;DHT22;383;48.766;9.270;2023-11-21T06:52:23;9.90;99.90
802;DHT22;383;48.766;9.270;2023-11-21T06:54:49;9.90;99.90
802;DHT22;383;48.766;9.270;2023-11-21T06:57:16;9.90;99.90
802;DHT22;383;48.766;9.270;2023-11-21T06:59:44;9.90;99.90
802;DHT22;383;48.766;9.270;2023-11-21T07:02:11;9.90;99.90
802;DHT22;383;48.766;9.270;2023-11-21T07:04:38;9.90;99.90
802;DHT22;383;48.766;9.270;2023-11-21T07:07:04;9.90;99.90
802;DHT22;383;48.766;9.270;2023-11-21T07:09:32;10.00;99.90
802;DHT22;383;48.766;9.270;2023-11-21T07:11:59;10.00;99.90
802;DHT22;383;48.766;9.270;2023-11-21T07:14:25;10.00;99.90
802;DHT22;383;48.766;9.270;2023-11-21T07:16:53;10.10;99.90
802;DHT22;383;48.766;9.270;2023-11-21T07:19:20;10.10;99.90
802;DHT22;383;48.766;9.270;2023-11-21T07:21:47;10.20;99.90
802;DHT22;383;48.766;9.270;2023-11-21T07:24:16;10.20;99.90
802;DHT22;383;48.766;9.270;2023-11-21T07:26:42;10.30;99.90
802;DHT22;383;48.766;9.270;2023-11-21T07:29:09;10.30;99.70
802;DHT22;383;48.766;9.270;2023-11-21T07:31:38;10.30;99.70
802;DHT22;383;48.766;9.270;2023-11-21T07:34:07;10.30;99.80
802;DHT22;383;48.766;9.270;2023-11-21T07:36:34;10.30;99.80
802;DHT22;383;48.766;9.270;2023-11-21T07:39:01;10.40;99.80
802;DHT22;383;48.766;9.270;2023-11-21T07:41:28;10.40;99.70
802;DHT22;383;48.766;9.270;2023-11-21T07:43:55;10.40;99.50
802;DHT22;383;48.766;9.270;2023-11-21T07:46:22;10.50;99.00
802;DHT22;383;48.766;9.270;2023-11-21T07:48:49;10.60;98.70
802;DHT22;383;48.766;9.270;2023-11-21T07:51:16;10.50;98.60
802;DHT22;383;48.766;9.270;2023-11-21T07:53:43;10.60;98.60
802;DHT22;383;48.766;9.270;2023-11-21T07:56:10;10.60;98.40
802;DHT22;383;48.766;9.270;2023-11-21T07:58:37;10.70;98.30
802;DHT22;383;48.766;9.270;2023-11-21T08:01:04;10.70;98.20
802;DHT22;383;48.766;9.270;2023-11-21T08:03:31;10.70;98.30
802;DHT22;383;48.766;9.270;2023-11-21T08:05:58;10.60;98.90
802;DHT22;383;48.766;9.270;2023-11-21T08:08:26;10.60;99.20
802;DHT22;383;48.766;9.270;2023-11-21T08:10:53;10.60;99.50
802;DHT22;383;48.766;9.270;2023-11-21T08:13:22;10.60;99.70
802;DHT22;383;48.766;9.270;2023-11-21T08:15:49;10.70;99.50
802;DHT22;383;48.766;9.270;2023-11-21T08:18:16;10.70;99.50
802;DHT22;383;48.766;9.270;2023-11-21T08:20:43;10.70;99.50
802;DHT22;383;48.766;9.270;2023-11-21T08:23:13;10.70;99.50
802;DHT22;383;48.766;9.270;2023-11-21T08:25:43;10.80;99.50
802;DHT22;383;48.766;9.270;2023-11-21T08:28:09;10.80;99.30
802;DHT22;383;48.766;9.270;2023-11-21T08:30:36;10.80;99.20
802;DHT22;383;48.766;9.270;2023-11-21T08:33:03;10.80;99.00
802;DHT22;383;48.766;9.270;2023-11-21T08:35:30;10.90;98.80
802;DHT22;383;48.766;9.270;2023-11-21T08:37:57;10.90;98.70
802;DHT22;383;48.766;9.270;2023-11-21T08:40:24;11.00;98.50
802;DHT22;383;48.766;9.270;2023-11-21T08:42:52;11.00;98.20
802;DHT22;383;48.766;9.270;2023-11-21T08:45:19;11.00;97.80
802;DHT22;383;48.766;9.270;2023-11-21T08:47:46;11.10;97.80
802;DHT22;383;48.766;9.270;2023-11-21T08:50:13;11.10;97.70
802;DHT22;383;48.766;9.270;2023-11-21T08:52:40;11.10;97.60
802;DHT22;383;48.766;9.270;2023-11-21T08:55:08;11.10;97.60
802;DHT22;383;48.766;9.270;2023-11-21T08:57:36;11.10;97.00
802;DHT22;383;48.766;9.270;2023-11-21T09:00:05;11.10;97.30
802;DHT22;383;48.766;9.270;2023-11-21T09:02:35;11.20;97.50
802;DHT22;383;48.766;9.270;2023-11-21T09:05:03;11.20;97.70
802;DHT22;383;48.766;9.270;2023-11-21T09:07:30;11.30;98.00
802;DHT22;383;48.766;9.270;2023-11-21T09:09:56;11.30;98.10
802;DHT22;383;48.766;9.270;2023-11-21T09:12:24;11.40;98.10
802;DHT22;383;48.766;9.270;2023-11-21T09:14:51;11.50;97.50
802;DHT22;383;48.766;9.270;2023-11-21T09:17:19;11.50;97.10
802;DHT22;383;48.766;9.270;2023-11-21T09:19:46;11.60;96.70
802;DHT22;383;48.766;9.270;2023-11-21T09:22:16;11.60;96.70
802;DHT22;383;48.766;9.270;2023-11-21T09:24:43;11.70;96.10
802;DHT22;383;48.766;9.270;2023-11-21T09:27:10;11.70;96.10
802;DHT22;383;48.766;9.270;2023-11-21T09:29:37;11.70;96.20
802;DHT22;383;48.766;9.270;2023-11-21T09:32:05;11.80;95.70
802;DHT22;383;48.766;9.270;2023-11-21T09:34:33;11.90;94.80
802;DHT22;383;48.766;9.270;2023-11-21T09:37:01;12.00;94.20
802;DHT22;383;48.766;9.270;2023-11-21T09:39:31;12.20;92.00
802;DHT22;383;48.766;9.270;2023-11-21T09:42:04;12.30;91.80
802;DHT22;383;48.766;9.270;2023-11-21T09:44:35;12.30;92.40
802;DHT22;383;48.766;9.270;2023-11-21T09:47:02;12.40;92.90
802;DHT22;383;48.766;9.270;2023-11-21T09:49:32;12.40;93.30
802;DHT22;383;48.766;9.270;2023-11-21T09:52:01;12.50;93.10
802;DHT22;383;48.766;9.270;2023-11-21T09:54:30;12.50;93.10
802;DHT22;383;48.766;9.270;2023-11-21T09:56:58;12.60;91.80
802;DHT22;383;48.766;9.270;2023-11-21T09:59:30;12.70;91.80
802;DHT22;383;48.766;9.270;2023-11-21T10:01:57;12.70;90.70
802;DHT22;383;48.766;9.270;2023-11-21T10:04:25;12.80;90.10
802;DHT22;383;48.766;9.270;2023-11-21T10:06:53;12.80;90.60
802;DHT22;383;48.766;9.270;2023-11-21T10:09:21;12.90;90.80
802;DHT22;383;48.766;9.270;2023-11-21T10:11:49;12.90;90.60
802;DHT22;383;48.766;9.270;2023-11-21T10:14:18;12.90;90.70
802;DHT22;383;48.766;9.270;2023-11-21T10:16:47;12.90;88.90
802;DHT22;383;48.766;9.270;2023-11-21T10:19:15;12.90;88.40
802;DHT22;383;48.766;9.270;2023-11-21T10:21:42;12.90;88.10
802;DHT22;383;48.766;9.270;2023-11-21T10:24:11;12.90;88.50
802;DHT22;383;48.766;9.270;2023-11-21T10:26:38;12.90;87.70
802;DHT22;383;48.766;9.270;2023-11-21T10:29:05;12.90;87.20
802;DHT22;383;48.766;9.270;2023-11-21T10:31:32;12.90;86.40
802;DHT22;383;48.766;9.270;2023-11-21T10:34:12;12.80;87.80
802;DHT22;383;48.766;9.270;2023-11-21T10:36:39;12.80;87.80
802;DHT22;383;48.766;9.270;2023-11-21T10:39:06;12.70;88.40
802;DHT22;383;48.766;9.270;2023-11-21T10:41:34;12.50;89.30
802;DHT22;383;48.766;9.270;2023-11-21T10:44:00;12.40;90.90
802;DHT22;383;48.766;9.270;2023-11-21T10:46:29;12.30;91.30
802;DHT22;383;48.766;9.270;2023-11-21T10:48:56;12.20;92.60
802;DHT22;383;48.766;9.270;2023-11-21T10:51:23;12.10;92.80
802;DHT22;383;48.766;9.270;2023-11-21T10:53:51;11.90;93.90
802;DHT22;383;48.766;9.270;2023-11-21T10:56:18;11.80;94.60
802;DHT22;383;48.766;9.270;2023-11-21T10:58:49;11.80;95.20
802;DHT22;383;48.766;9.270;2023-11-21T11:01:17;11.70;95.60
802;DHT22;383;48.766;9.270;2023-11-21T11:03:47;11.60;96.10
802;DHT22;383;48.766;9.270;2023-11-21T11:06:14;11.50;96.70
802;DHT22;383;48.766;9.270;2023-11-21T11:08:41;11.50;96.90
802;DHT22;383;48.766;9.270;2023-11-21T11:11:09;11.50;97.00
802;DHT22;383;48.766;9.270;2023-11-21T11:13:37;11.50;97.00
802;DHT22;383;48.766;9.270;2023-11-21T11:16:08;11.40;97.20
802;DHT22;383;48.766;9.270;2023-11-21T11:18:36;11.50;96.80
802;DHT22;383;48.766;9.270;2023-11-21T11:21:10;11.40;97.10
802;DHT22;383;48.766;9.270;2023-11-21T11:23:48;11.50;97.40
802;DHT22;383;48.766;9.270;2023-11-21T11:26:27;11.50;97.70
802;DHT22;383;48.766;9.270;2023-11-21T11:29:03;11.50;97.30
802;DHT22;383;48.766;9.270;2023-11-21T11:31:44;11.60;96.50
802;DHT22;383;48.766;9.270;2023-11-21T11:34:23;11.60;95.70
802;DHT22;383;48.766;9.270;2023-11-21T11:36:55;11.60;95.90
802;DHT22;383;48.766;9.270;2023-11-21T11:39:28;11.60;96.50
802;DHT22;383;48.766;9.270;2023-11-21T11:41:56;11.60;96.60
802;DHT22;383;48.766;9.270;2023-11-21T11:44:47;11.60;95.90
802;DHT22;383;48.766;9.270;2023-11-21T11:47:20;11.70;95.10
802;DHT22;383;48.766;9.270;2023-11-21T11:49:58;11.70;95.40
802;DHT22;383;48.766;9.270;2023-11-21T11:52:36;11.70;95.70
802;DHT22;383;48.766;9.270;2023-11-21T11:55:05;11.80;96.30
802;DHT22;383;48.766;9.270;2023-11-21T11:57:34;11.90;96.60
802;DHT22;383;48.766;9.270;2023-11-21T12:00:08;12.10;94.50
802;DHT22;383;48.766;9.270;2023-11-21T12:02:38;12.10;94.70
802;DHT22;383;48.766;9.270;2023-11-21T12:05:09;12.20;95.20
802;DHT22;383;48.766;9.270;2023-11-21T12:07:55;12.30;94.70
802;DHT22;383;48.766;9.270;2023-11-21T12:10:24;12.40;93.90
802;DHT22;383;48.766;9.270;2023-11-21T12:12:52;12.50;93.40
802;DHT22;383;48.766;9.270;2023-11-21T12:15:19;12.50;93.60
802;DHT22;383;48.766;9.270;2023-11-21T12:17:48;12.60;93.70
802;DHT22;383;48.766;9.270;2023-11-21T12:20:18;12.60;93.30
802;DHT22;383;48.766;9.270;2023-11-21T12:22:46;12.70;93.30
802;DHT22;383;48.766;9.270;2023-11-21T12:25:17;12.80;92.70
802;DHT22;383;48.766;9.270;2023-11-21T12:27:45;12.80;92.50
802;DHT22;383;48.766;9.270;2023-11-21T12:30:13;12.90;91.70
802;DHT22;383;48.766;9.270;2023-11-21T12:32:41;12.90;91.80
802;DHT22;383;48.766;9.270;2023-11-21T12:35:10;12.90;92.20
802;DHT22;383;48.766;9.270;2023-11-21T12:37:37;12.80;91.90
802;DHT22;383;48.766;9.270;2023-11-21T12:40:06;12.70;91.80
802;DHT22;383;48.766;9.270;2023-11-21T12:42:34;12.50;92.50
802;DHT22;383;48.766;9.270;2023-11-21T12:45:08;12.50;92.10
802;DHT22;383;48.766;9.270;2023-11-21T12:47:40;12.50;92.00
802;DHT22;383;48.766;9.270;2023-11-21T12:50:07;12.50;92.30
802;DHT22;383;48.766;9.270;2023-11-21T12:52:44;12.50;92.70
802;DHT22;383;48.766;9.270;2023-11-21T12:55:17;12.50;93.20
802;DHT22;383;48.766;9.270;2023-11-21T12:57:45;12.30;94.10
802;DHT22;383;48.766;9.270;2023-11-21T13:00:13;12.20;94.70
802;DHT22;383;48.766;9.270;2023-11-21T13:02:52;12.20;94.30
802;DHT22;383;48.766;9.270;2023-11-21T13:05:29;12.00;93.60
802;DHT22;383;48.766;9.270;2023-11-21T13:08:00;11.90;93.90
802;DHT22;383;48.766;9.270;2023-11-21T13:10:29;11.90;94.10
802;DHT22;383;48.766;9.270;2023-11-21T13:12:56;11.80;93.80
802;DHT22;383;48.766;9.270;2023-11-21T13:15:25;11.70;94.60
802;DHT22;383;48.766;9.270;2023-11-21T13:17:53;11.70;95.10
802;DHT22;383;48.766;9.270;2023-11-21T13:20:21;11.70;95.30
802;DHT22;383;48.766;9.270;2023-11-21T13:22:48;11.70;95.60
802;DHT22;383;48.766;9.270;2023-11-21T13:25:17;11.70;95.60
802;DHT22;383;48.766;9.270;2023-11-21T13:27:45;11.80;95.70
802;DHT22;383;48.766;9.270;2023-11-21T13:30:13;11.90;96.30
802;DHT22;383;48.766;9.270;2023-11-21T13:32:42;11.90;96.10
802;DHT22;383;48.766;9.270;2023-11-21T13:35:09;12.00;96.20
802;DHT22;383;48.766;9.270;2023-11-21T13:37:48;12.10;96.60
802;DHT22;383;48.766;9.270;2023-11-21T13:40:20;12.20;95.40
802;DHT22;383;48.766;9.270;2023-11-21T13:42:49;12.20;93.60
802;DHT22;383;48.766;9.270;2023-11-21T13:45:19;12.10;94.20
802;DHT22;383;48.766;9.270;2023-11-21T13:47:46;11.90;95.20
802;DHT22;383;48.766;9.270;2023-11-21T13:50:12;11.80;96.10
802;DHT22;383;48.766;9.270;2023-11-21T13:52:47;11.70;96.50
802;DHT22;383;48.766;9.270;2023-11-21T13:55:14;11.60;96.60
802;DHT22;383;48.766;9.270;2023-11-21T13:57:43;11.50;96.30
802;DHT22;383;48.766;9.270;2023-11-21T14:00:15;11.40;96.50
802;DHT22;383;48.766;9.270;2023-11-21T14:03:02;11.20;97.10
802;DHT22;383;48.766;9.270;2023-11-21T14:05:34;11.10;98.40
802;DHT22;383;48.766;9.270;2023-11-21T14:08:00;11.10;98.20
802;DHT22;383;48.766;9.270;2023-11-21T14:10:30;11.00;98.40
802;DHT22;383;48.766;9.270;2023-11-21T14:13:04;10.90;99.20
802;DHT22;383;48.766;9.270;2023-11-21T14:15:31;10.90;99.60
802;DHT22;383;48.766;9.270;2023-11-21T14:17:58;10.90;99.60
802;DHT22;383;48.766;9.270;2023-11-21T14:20:28;10.90;99.90
802;DHT22;383;48.766;9.270;2023-11-21T14:22:55;10.90;99.80
802;DHT22;383;48.766;9.270;2023-11-21T14:25:22;10.90;99.60
802;DHT22;383;48.766;9.270;2023-11-21T14:27:49;11.00;99.70
802;DHT22;383;48.766;9.270;2023-11-21T14:30:17;11.00;99.90
802;DHT22;383;48.766;9.270;2023-11-21T14:32:47;10.90;99.90
802;DHT22;383;48.766;9.270;2023-11-21T14:35:15;10.90;99.90
802;DHT22;383;48.766;9.270;2023-11-21T14:37:41;10.90;99.80
802;DHT22;383;48.766;9.270;2023-11-21T14:40:09;10.90;99.60
802;DHT22;383;48.766;9.270;2023-11-21T14:42:36;10.90;99.20
802;DHT22;383;48.766;9.270;2023-11-21T14:45:06;10.80;99.90
802;DHT22;383;48.766;9.270;2023-11-21T14:47:35;10.80;99.90
802;DHT22;383;48.766;9.270;2023-11-21T14:50:08;10.80;99.00
802;DHT22;383;48.766;9.270;2023-11-21T14:52:58;10.80;99.20
802;DHT22;383;48.766;9.270;2023-11-21T14:55:24;10.70;99.60
802;DHT22;383;48.766;9.270;2023-11-21T14:57:57;10.60;99.70
802;DHT22;383;48.766;9.270;2023-11-21T15:00:27;10.70;98.90
802;DHT22;383;48.766;9.270;2023-11-21T15:03:13;10.60;98.30
802;DHT22;383;48.766;9.270;2023-11-21T15:06:05;10.60;98.20
802;DHT22;383;48.766;9.270;2023-11-21T15:08:44;10.60;98.40
802;DHT22;383;48.766;9.270;2023-11-21T15:11:10;10.60;98.10
802;DHT22;383;48.766;9.270;2023-11-21T15:13:40;10.60;98.00
802;DHT22;383;48.766;9.270;2023-11-21T15:16:08;10.60;98.40
802;DHT22;383;48.766;9.270;2023-11-21T15:18:39;10.50;98.00
802;DHT22;383;48.766;9.270;2023-11-21T15:21:06;10.50;98.60
802;DHT22;383;48.766;9.270;2023-11-21T15:23:36;10.40;98.40
802;DHT22;383;48.766;9.270;2023-11-21T15:26:04;10.40;98.60
802;DHT22;383;48.766;9.270;2023-11-21T15:28:31;10.30;98.90
802;DHT22;383;48.766;9.270;2023-11-21T15:30:58;10.40;99.20
802;DHT22;383;48.766;9.270;2023-11-21T15:33:25;10.40;98.60
802;DHT22;383;48.766;9.270;2023-11-21T15:35:54;10.40;98.20
802;DHT22;383;48.766;9.270;2023-11-21T15:38:20;10.30;98.20
802;DHT22;383;48.766;9.270;2023-11-21T15:40:47;10.30;98.60
802;DHT22;383;48.766;9.270;2023-11-21T15:43:15;10.30;98.40
802;DHT22;383;48.766;9.270;2023-11-21T15:45:41;10.40;98.20
802;DHT22;383;48.766;9.270;2023-11-21T15:48:08;10.40;98.20
802;DHT22;383;48.766;9.270;2023-11-21T15:50:36;10.30;98.70
802;DHT22;383;48.766;9.270;2023-11-21T15:53:04;10.30;98.60
802;DHT22;383;48.766;9.270;2023-11-21T15:55:30;10.30;98.70
802;DHT22;383;48.766;9.270;2023-11-21T15:57:58;10.40;98.50
802;DHT22;383;48.766;9.270;2023-11-21T16:00:27;10.40;98.90
802;DHT22;383;48.766;9.270;2023-11-21T16:02:54;10.40;98.70
802;DHT22;383;48.766;9.270;2023-11-21T16:05:21;10.50;98.50
802;DHT22;383;48.766;9.270;2023-11-21T16:07:51;10.50;98.50
802;DHT22;383;48.766;9.270;2023-11-21T16:10:20;10.60;98.20
802;DHT22;383;48.766;9.270;2023-11-21T16:12:46;10.50;98.40
802;DHT22;383;48.766;9.270;2023-11-21T16:15:13;10.60;98.40
802;DHT22;383;48.766;9.270;2023-11-21T16:17:40;10.50;98.60
802;DHT22;383;48.766;9.270;2023-11-21T16:20:08;10.60;98.20
802;DHT22;383;48.766;9.270;2023-11-21T16:22:36;10.60;98.30
802;DHT22;383;48.766;9.270;2023-11-21T16:25:03;10.50;98.20
802;DHT22;383;48.766;9.270;2023-11-21T16:27:36;10.50;98.10
802;DHT22;383;48.766;9.270;2023-11-21T16:30:04;10.50;98.00
802;DHT22;383;48.766;9.270;2023-11-21T16:32:32;10.50;98.30
802;DHT22;383;48.766;9.270;2023-11-21T16:35:00;10.50;98.40
802;DHT22;383;48.766;9.270;2023-11-21T16:37:28;10.40;98.70
802;DHT22;383;48.766;9.270;2023-11-21T16:39:55;10.40;98.80
802;DHT22;383;48.766;9.270;2023-11-21T16:42:22;10.40;99.20
802;DHT22;383;48.766;9.270;2023-11-21T16:44:50;10.40;98.90